sensor_id;sensor_type;location;lat;lon;timestamp;P1;durP1;ratioP1;P2;durP2;ratioP2
51529;SDS011;37613;51.788;21.582;2022-12-29T00:02:24;16.40;;;9.30;;
51529;SDS011;37613;51.788;21.582;2022-12-29T00:06:27;19.70;;;9.00;;
51529;SDS011;37613;51.788;21.582;2022-12-29T00:10:29;18.60;;;9.40;;
51529;SDS011;37613;51.788;21.582;2022-12-29T00:14:31;15.70;;;8.20;;
51529;SDS011;37613;51.788;21.582;2022-12-29T00:18:51;15.90;;;8.80;;
51529;SDS011;37613;51.788;21.582;2022-12-29T00:22:54;21.00;;;9.00;;
51529;SDS011;37613;51.788;21.582;2022-12-29T00:27:14;19.70;;;8.80;;
51529;SDS011;37613;51.788;21.582;2022-12-29T00:31:34;11.20;;;7.20;;
51529;SDS011;37613;51.788;21.582;2022-12-29T00:35:56;17.10;;;8.00;;
51529;SDS011;37613;51.788;21.582;2022-12-29T00:45:39;16.50;;;7.70;;
51529;SDS011;37613;51.788;21.582;2022-12-29T00:49:42;15.40;;;8.20;;
51529;SDS011;37613;51.788;21.582;2022-12-29T00:53:44;15.20;;;8.40;;
51529;SDS011;37613;51.788;21.582;2022-12-29T00:57:46;16.70;;;8.10;;
51529;SDS011;37613;51.788;21.582;2022-12-29T01:01:48;13.30;;;6.90;;
51529;SDS011;37613;51.788;21.582;2022-12-29T01:05:50;17.80;;;8.20;;
51529;SDS011;37613;51.788;21.582;2022-12-29T01:09:52;19.60;;;8.30;;
51529;SDS011;37613;51.788;21.582;2022-12-29T01:14:12;14.50;;;7.30;;
51529;SDS011;37613;51.788;21.582;2022-12-29T01:18:14;17.10;;;8.70;;
51529;SDS011;37613;51.788;21.582;2022-12-29T01:22:16;14.30;;;8.20;;
51529;SDS011;37613;51.788;21.582;2022-12-29T01:26:18;18.40;;;8.90;;
51529;SDS011;37613;51.788;21.582;2022-12-29T01:30:20;15.60;;;8.40;;
51529;SDS011;37613;51.788;21.582;2022-12-29T01:34:22;16.30;;;7.70;;
51529;SDS011;37613;51.788;21.582;2022-12-29T01:38:24;19.70;;;8.70;;
51529;SDS011;37613;51.788;21.582;2022-12-29T01:42:26;20.00;;;9.30;;
51529;SDS011;37613;51.788;21.582;2022-12-29T01:50:42;19.10;;;8.70;;
51529;SDS011;37613;51.788;21.582;2022-12-29T01:54:51;17.80;;;8.20;;
51529;SDS011;37613;51.788;21.582;2022-12-29T01:58:59;16.20;;;7.80;;
51529;SDS011;37613;51.788;21.582;2022-12-29T02:03:06;15.90;;;7.90;;
51529;SDS011;37613;51.788;21.582;2022-12-29T02:07:11;15.80;;;7.50;;
51529;SDS011;37613;51.788;21.582;2022-12-29T02:11:20;14.80;;;7.10;;
51529;SDS011;37613;51.788;21.582;2022-12-29T02:25:30;15.30;;;7.70;;
51529;SDS011;37613;51.788;21.582;2022-12-29T02:29:21;13.60;;;7.50;;
51529;SDS011;37613;51.788;21.582;2022-12-29T02:33:42;14.70;;;6.60;;
51529;SDS011;37613;51.788;21.582;2022-12-29T02:38:14;17.10;;;7.60;;
51529;SDS011;37613;51.788;21.582;2022-12-29T02:47:05;13.30;;;7.00;;
51529;SDS011;37613;51.788;21.582;2022-12-29T02:51:46;12.90;;;6.90;;
51529;SDS011;37613;51.788;21.582;2022-12-29T02:55:56;15.60;;;6.80;;
51529;SDS011;37613;51.788;21.582;2022-12-29T03:00:00;16.00;;;7.50;;
51529;SDS011;37613;51.788;21.582;2022-12-29T03:12:53;17.70;;;7.70;;
51529;SDS011;37613;51.788;21.582;2022-12-29T03:17:24;17.10;;;7.40;;
51529;SDS011;37613;51.788;21.582;2022-12-29T03:21:37;14.20;;;7.10;;
51529;SDS011;37613;51.788;21.582;2022-12-29T03:26:02;15.00;;;7.60;;
51529;SDS011;37613;51.788;21.582;2022-12-29T03:30:08;16.10;;;7.60;;
51529;SDS011;37613;51.788;21.582;2022-12-29T03:34:11;14.70;;;7.40;;
51529;SDS011;37613;51.788;21.582;2022-12-29T03:38:27;13.20;;;6.70;;
51529;SDS011;37613;51.788;21.582;2022-12-29T03:42:37;12.50;;;7.10;;
51529;SDS011;37613;51.788;21.582;2022-12-29T03:50:42;15.80;;;6.70;;
51529;SDS011;37613;51.788;21.582;2022-12-29T03:54:44;13.60;;;7.10;;
51529;SDS011;37613;51.788;21.582;2022-12-29T03:58:46;16.20;;;7.50;;
51529;SDS011;37613;51.788;21.582;2022-12-29T04:02:48;12.30;;;6.60;;
51529;SDS011;37613;51.788;21.582;2022-12-29T04:06:50;13.20;;;6.90;;
51529;SDS011;37613;51.788;21.582;2022-12-29T04:10:53;13.60;;;6.60;;
51529;SDS011;37613;51.788;21.582;2022-12-29T04:14:55;11.60;;;6.30;;
51529;SDS011;37613;51.788;21.582;2022-12-29T04:18:57;12.20;;;6.90;;
51529;SDS011;37613;51.788;21.582;2022-12-29T04:22:59;13.60;;;6.70;;
51529;SDS011;37613;51.788;21.582;2022-12-29T04:27:02;14.70;;;7.40;;
51529;SDS011;37613;51.788;21.582;2022-12-29T04:31:05;27.00;;;12.90;;
51529;SDS011;37613;51.788;21.582;2022-12-29T04:35:07;12.90;;;7.30;;
51529;SDS011;37613;51.788;21.582;2022-12-29T04:39:09;21.20;;;7.70;;
51529;SDS011;37613;51.788;21.582;2022-12-29T04:43:12;14.80;;;6.80;;
51529;SDS011;37613;51.788;21.582;2022-12-29T04:47:14;11.80;;;6.40;;
51529;SDS011;37613;51.788;21.582;2022-12-29T04:51:17;13.40;;;6.40;;
51529;SDS011;37613;51.788;21.582;2022-12-29T04:55:19;13.40;;;7.10;;
51529;SDS011;37613;51.788;21.582;2022-12-29T04:59:21;15.00;;;6.50;;
51529;SDS011;37613;51.788;21.582;2022-12-29T05:03:23;12.60;;;6.10;;
51529;SDS011;37613;51.788;21.582;2022-12-29T05:07:25;16.10;;;6.70;;
51529;SDS011;37613;51.788;21.582;2022-12-29T05:11:27;12.40;;;6.50;;
51529;SDS011;37613;51.788;21.582;2022-12-29T05:15:29;13.20;;;6.90;;
51529;SDS011;37613;51.788;21.582;2022-12-29T05:19:31;11.80;;;6.10;;
51529;SDS011;37613;51.788;21.582;2022-12-29T05:23:33;12.00;;;6.20;;
51529;SDS011;37613;51.788;21.582;2022-12-29T05:27:35;10.80;;;5.70;;
51529;SDS011;37613;51.788;21.582;2022-12-29T05:31:38;11.30;;;5.90;;
51529;SDS011;37613;51.788;21.582;2022-12-29T05:35:40;15.10;;;6.80;;
51529;SDS011;37613;51.788;21.582;2022-12-29T05:39:42;10.90;;;6.00;;
51529;SDS011;37613;51.788;21.582;2022-12-29T05:43:44;10.60;;;5.70;;
51529;SDS011;37613;51.788;21.582;2022-12-29T05:47:46;12.00;;;5.10;;
51529;SDS011;37613;51.788;21.582;2022-12-29T05:51:48;9.40;;;5.70;;
51529;SDS011;37613;51.788;21.582;2022-12-29T05:55:50;8.00;;;4.70;;
51529;SDS011;37613;51.788;21.582;2022-12-29T05:59:53;9.50;;;5.40;;
51529;SDS011;37613;51.788;21.582;2022-12-29T06:03:55;10.10;;;4.90;;
51529;SDS011;37613;51.788;21.582;2022-12-29T06:07:57;8.10;;;5.60;;
51529;SDS011;37613;51.788;21.582;2022-12-29T06:11:59;8.20;;;4.60;;
51529;SDS011;37613;51.788;21.582;2022-12-29T06:16:01;9.00;;;5.00;;
51529;SDS011;37613;51.788;21.582;2022-12-29T06:20:03;13.70;;;7.00;;
51529;SDS011;37613;51.788;21.582;2022-12-29T06:24:05;12.20;;;7.10;;
51529;SDS011;37613;51.788;21.582;2022-12-29T06:28:08;8.60;;;5.10;;
51529;SDS011;37613;51.788;21.582;2022-12-29T06:32:12;11.00;;;4.70;;
51529;SDS011;37613;51.788;21.582;2022-12-29T06:36:14;13.00;;;6.40;;
51529;SDS011;37613;51.788;21.582;2022-12-29T06:40:16;7.90;;;5.10;;
51529;SDS011;37613;51.788;21.582;2022-12-29T06:44:18;13.40;;;8.00;;
51529;SDS011;37613;51.788;21.582;2022-12-29T06:48:20;11.40;;;6.30;;
51529;SDS011;37613;51.788;21.582;2022-12-29T06:52:22;11.60;;;5.30;;
51529;SDS011;37613;51.788;21.582;2022-12-29T06:56:25;11.90;;;6.70;;
51529;SDS011;37613;51.788;21.582;2022-12-29T07:00:27;7.80;;;4.70;;
51529;SDS011;37613;51.788;21.582;2022-12-29T07:04:29;9.10;;;5.90;;
51529;SDS011;37613;51.788;21.582;2022-12-29T07:08:32;8.40;;;5.30;;
51529;SDS011;37613;51.788;21.582;2022-12-29T07:12:34;9.40;;;4.60;;
51529;SDS011;37613;51.788;21.582;2022-12-29T07:16:36;10.40;;;6.60;;
51529;SDS011;37613;51.788;21.582;2022-12-29T07:20:38;9.10;;;5.20;;
51529;SDS011;37613;51.788;21.582;2022-12-29T07:24:40;8.60;;;5.60;;
51529;SDS011;37613;51.788;21.582;2022-12-29T07:28:43;13.80;;;7.30;;
51529;SDS011;37613;51.788;21.582;2022-12-29T07:32:45;8.30;;;5.10;;
51529;SDS011;37613;51.788;21.582;2022-12-29T07:36:47;9.50;;;4.70;;
51529;SDS011;37613;51.788;21.582;2022-12-29T07:40:49;8.50;;;5.90;;
51529;SDS011;37613;51.788;21.582;2022-12-29T07:44:51;9.00;;;5.80;;
51529;SDS011;37613;51.788;21.582;2022-12-29T07:48:54;8.10;;;5.20;;
51529;SDS011;37613;51.788;21.582;2022-12-29T07:52:56;10.80;;;5.40;;
51529;SDS011;37613;51.788;21.582;2022-12-29T07:56:58;50.20;;;22.90;;
51529;SDS011;37613;51.788;21.582;2022-12-29T08:05:03;25.30;;;12.90;;
51529;SDS011;37613;51.788;21.582;2022-12-29T08:09:06;36.20;;;16.90;;
51529;SDS011;37613;51.788;21.582;2022-12-29T08:13:08;19.10;;;11.10;;
51529;SDS011;37613;51.788;21.582;2022-12-29T08:17:10;13.90;;;8.20;;
51529;SDS011;37613;51.788;21.582;2022-12-29T08:21:12;21.40;;;14.20;;
51529;SDS011;37613;51.788;21.582;2022-12-29T08:25:14;35.30;;;24.40;;
51529;SDS011;37613;51.788;21.582;2022-12-29T08:29:16;26.80;;;12.10;;
51529;SDS011;37613;51.788;21.582;2022-12-29T08:33:18;26.80;;;13.90;;
51529;SDS011;37613;51.788;21.582;2022-12-29T08:37:20;17.80;;;9.90;;
51529;SDS011;37613;51.788;21.582;2022-12-29T08:41:23;17.20;;;8.70;;
51529;SDS011;37613;51.788;21.582;2022-12-29T08:45:25;27.20;;;14.30;;
51529;SDS011;37613;51.788;21.582;2022-12-29T08:49:27;16.60;;;9.40;;
51529;SDS011;37613;51.788;21.582;2022-12-29T08:53:29;10.50;;;5.90;;
51529;SDS011;37613;51.788;21.582;2022-12-29T08:57:31;23.60;;;11.60;;
51529;SDS011;37613;51.788;21.582;2022-12-29T09:01:33;31.80;;;14.90;;
51529;SDS011;37613;51.788;21.582;2022-12-29T09:05:37;16.80;;;9.30;;
51529;SDS011;37613;51.788;21.582;2022-12-29T09:09:39;19.50;;;10.40;;
51529;SDS011;37613;51.788;21.582;2022-12-29T09:13:45;11.70;;;7.20;;
51529;SDS011;37613;51.788;21.582;2022-12-29T09:17:47;14.00;;;7.80;;
51529;SDS011;37613;51.788;21.582;2022-12-29T09:21:49;20.00;;;10.70;;
51529;SDS011;37613;51.788;21.582;2022-12-29T09:25:51;20.60;;;10.50;;
51529;SDS011;37613;51.788;21.582;2022-12-29T09:29:54;20.70;;;11.40;;
51529;SDS011;37613;51.788;21.582;2022-12-29T09:33:56;21.90;;;11.40;;
51529;SDS011;37613;51.788;21.582;2022-12-29T09:37:58;15.10;;;9.20;;
51529;SDS011;37613;51.788;21.582;2022-12-29T09:46:32;20.80;;;9.60;;
51529;SDS011;37613;51.788;21.582;2022-12-29T09:50:48;13.60;;;8.00;;
51529;SDS011;37613;51.788;21.582;2022-12-29T09:59:04;28.90;;;13.90;;
51529;SDS011;37613;51.788;21.582;2022-12-29T10:03:15;22.70;;;11.10;;
51529;SDS011;37613;51.788;21.582;2022-12-29T10:15:53;19.90;;;10.90;;
51529;SDS011;37613;51.788;21.582;2022-12-29T10:20:13;16.10;;;8.60;;
51529;SDS011;37613;51.788;21.582;2022-12-29T10:24:38;20.00;;;11.30;;
51529;SDS011;37613;51.788;21.582;2022-12-29T10:28:48;21.20;;;10.90;;
51529;SDS011;37613;51.788;21.582;2022-12-29T10:33:08;17.20;;;8.80;;
51529;SDS011;37613;51.788;21.582;2022-12-29T10:37:40;12.00;;;6.70;;
51529;SDS011;37613;51.788;21.582;2022-12-29T10:46:10;13.10;;;5.50;;
51529;SDS011;37613;51.788;21.582;2022-12-29T10:50:24;14.70;;;9.60;;
51529;SDS011;37613;51.788;21.582;2022-12-29T10:54:46;19.40;;;12.90;;
51529;SDS011;37613;51.788;21.582;2022-12-29T10:58:54;11.70;;;5.80;;
51529;SDS011;37613;51.788;21.582;2022-12-29T11:07:20;13.60;;;7.90;;
51529;SDS011;37613;51.788;21.582;2022-12-29T11:11:25;9.90;;;6.20;;
51529;SDS011;37613;51.788;21.582;2022-12-29T11:15:44;10.30;;;5.70;;
51529;SDS011;37613;51.788;21.582;2022-12-29T11:19:51;15.40;;;6.80;;
51529;SDS011;37613;51.788;21.582;2022-12-29T11:23:57;9.50;;;5.40;;
51529;SDS011;37613;51.788;21.582;2022-12-29T11:28:15;14.00;;;7.90;;
51529;SDS011;37613;51.788;21.582;2022-12-29T11:32:20;24.40;;;10.90;;
51529;SDS011;37613;51.788;21.582;2022-12-29T11:36:28;18.70;;;9.30;;
51529;SDS011;37613;51.788;21.582;2022-12-29T11:40:31;25.90;;;12.00;;
51529;SDS011;37613;51.788;21.582;2022-12-29T11:44:42;14.50;;;6.40;;
51529;SDS011;37613;51.788;21.582;2022-12-29T11:48:48;11.60;;;6.00;;
51529;SDS011;37613;51.788;21.582;2022-12-29T11:52:56;15.80;;;10.10;;
51529;SDS011;37613;51.788;21.582;2022-12-29T11:57:12;16.80;;;9.00;;
51529;SDS011;37613;51.788;21.582;2022-12-29T12:01:17;19.90;;;10.50;;
51529;SDS011;37613;51.788;21.582;2022-12-29T12:05:33;31.70;;;16.70;;
51529;SDS011;37613;51.788;21.582;2022-12-29T12:09:49;16.40;;;9.80;;
51529;SDS011;37613;51.788;21.582;2022-12-29T12:14:46;14.80;;;8.00;;
51529;SDS011;37613;51.788;21.582;2022-12-29T12:22:50;38.80;;;20.80;;
51529;SDS011;37613;51.788;21.582;2022-12-29T12:27:21;16.50;;;9.50;;
51529;SDS011;37613;51.788;21.582;2022-12-29T12:44:43;16.70;;;8.00;;
51529;SDS011;37613;51.788;21.582;2022-12-29T12:58:04;11.20;;;7.30;;
51529;SDS011;37613;51.788;21.582;2022-12-29T13:10:54;18.70;;;7.70;;
51529;SDS011;37613;51.788;21.582;2022-12-29T13:19:59;27.50;;;13.50;;
51529;SDS011;37613;51.788;21.582;2022-12-29T13:37:15;47.40;;;28.70;;
51529;SDS011;37613;51.788;21.582;2022-12-29T13:45:34;37.30;;;23.10;;
51529;SDS011;37613;51.788;21.582;2022-12-29T13:49:37;54.20;;;29.10;;
51529;SDS011;37613;51.788;21.582;2022-12-29T14:06:52;15.80;;;9.50;;
51529;SDS011;37613;51.788;21.582;2022-12-29T14:11:06;21.70;;;9.60;;
51529;SDS011;37613;51.788;21.582;2022-12-29T14:19:16;82.30;;;43.10;;
51529;SDS011;37613;51.788;21.582;2022-12-29T14:27:44;77.80;;;32.60;;
51529;SDS011;37613;51.788;21.582;2022-12-29T14:31:54;59.60;;;24.60;;
51529;SDS011;37613;51.788;21.582;2022-12-29T14:35:57;42.70;;;21.10;;
51529;SDS011;37613;51.788;21.582;2022-12-29T14:40:35;30.40;;;17.70;;
51529;SDS011;37613;51.788;21.582;2022-12-29T14:48:55;26.40;;;14.00;;
51529;SDS011;37613;51.788;21.582;2022-12-29T14:53:03;22.20;;;12.70;;
51529;SDS011;37613;51.788;21.582;2022-12-29T14:57:11;57.70;;;27.20;;
51529;SDS011;37613;51.788;21.582;2022-12-29T15:10:03;19.50;;;9.60;;
51529;SDS011;37613;51.788;21.582;2022-12-29T15:14:27;43.10;;;17.80;;
51529;SDS011;37613;51.788;21.582;2022-12-29T15:18:38;19.10;;;9.20;;
51529;SDS011;37613;51.788;21.582;2022-12-29T15:22:44;49.30;;;20.30;;
51529;SDS011;37613;51.788;21.582;2022-12-29T15:26:47;72.00;;;30.30;;
51529;SDS011;37613;51.788;21.582;2022-12-29T15:30:54;29.20;;;15.60;;
51529;SDS011;37613;51.788;21.582;2022-12-29T15:34:58;38.30;;;18.20;;
51529;SDS011;37613;51.788;21.582;2022-12-29T15:47:53;32.30;;;15.70;;
51529;SDS011;37613;51.788;21.582;2022-12-29T15:51:57;28.00;;;15.50;;
51529;SDS011;37613;51.788;21.582;2022-12-29T15:56:07;26.60;;;14.60;;
51529;SDS011;37613;51.788;21.582;2022-12-29T16:00:23;29.90;;;14.90;;
51529;SDS011;37613;51.788;21.582;2022-12-29T16:04:35;38.20;;;19.30;;
51529;SDS011;37613;51.788;21.582;2022-12-29T16:08:41;35.30;;;19.00;;
51529;SDS011;37613;51.788;21.582;2022-12-29T16:12:48;34.70;;;19.80;;
51529;SDS011;37613;51.788;21.582;2022-12-29T16:16:50;29.40;;;17.80;;
51529;SDS011;37613;51.788;21.582;2022-12-29T16:20:56;38.90;;;20.10;;
51529;SDS011;37613;51.788;21.582;2022-12-29T16:25:03;24.70;;;13.90;;
51529;SDS011;37613;51.788;21.582;2022-12-29T16:29:30;28.50;;;15.10;;
51529;SDS011;37613;51.788;21.582;2022-12-29T16:33:39;27.10;;;15.20;;
51529;SDS011;37613;51.788;21.582;2022-12-29T16:47:15;27.40;;;15.10;;
51529;SDS011;37613;51.788;21.582;2022-12-29T16:51:39;22.00;;;12.50;;
51529;SDS011;37613;51.788;21.582;2022-12-29T16:55:49;33.00;;;17.30;;
51529;SDS011;37613;51.788;21.582;2022-12-29T17:00:02;30.70;;;13.90;;
51529;SDS011;37613;51.788;21.582;2022-12-29T17:04:10;31.50;;;16.10;;
51529;SDS011;37613;51.788;21.582;2022-12-29T17:08:17;37.10;;;18.10;;
51529;SDS011;37613;51.788;21.582;2022-12-29T17:12:28;55.90;;;29.30;;
51529;SDS011;37613;51.788;21.582;2022-12-29T17:16:38;40.10;;;20.30;;
51529;SDS011;37613;51.788;21.582;2022-12-29T17:20:45;39.90;;;19.50;;
51529;SDS011;37613;51.788;21.582;2022-12-29T17:24:47;48.00;;;24.90;;
51529;SDS011;37613;51.788;21.582;2022-12-29T17:28:49;47.10;;;22.60;;
51529;SDS011;37613;51.788;21.582;2022-12-29T17:32:51;48.80;;;22.20;;
51529;SDS011;37613;51.788;21.582;2022-12-29T17:36:55;50.40;;;22.60;;
51529;SDS011;37613;51.788;21.582;2022-12-29T17:40:57;46.40;;;21.20;;
51529;SDS011;37613;51.788;21.582;2022-12-29T17:45:00;66.10;;;24.70;;
51529;SDS011;37613;51.788;21.582;2022-12-29T17:49:04;51.80;;;22.00;;
51529;SDS011;37613;51.788;21.582;2022-12-29T17:53:14;57.70;;;22.40;;
51529;SDS011;37613;51.788;21.582;2022-12-29T17:57:21;40.30;;;17.30;;
51529;SDS011;37613;51.788;21.582;2022-12-29T18:01:23;39.60;;;18.40;;
51529;SDS011;37613;51.788;21.582;2022-12-29T18:05:28;47.00;;;21.90;;
51529;SDS011;37613;51.788;21.582;2022-12-29T18:09:34;63.80;;;28.10;;
51529;SDS011;37613;51.788;21.582;2022-12-29T18:13:37;55.90;;;24.00;;
51529;SDS011;37613;51.788;21.582;2022-12-29T18:17:40;48.20;;;23.90;;
51529;SDS011;37613;51.788;21.582;2022-12-29T18:21:42;42.10;;;19.20;;
51529;SDS011;37613;51.788;21.582;2022-12-29T18:30:20;35.60;;;18.30;;
51529;SDS011;37613;51.788;21.582;2022-12-29T18:34:22;35.70;;;17.90;;
51529;SDS011;37613;51.788;21.582;2022-12-29T18:38:24;35.70;;;17.10;;
51529;SDS011;37613;51.788;21.582;2022-12-29T18:42:27;29.50;;;15.30;;
51529;SDS011;37613;51.788;21.582;2022-12-29T18:46:29;30.20;;;16.80;;
51529;SDS011;37613;51.788;21.582;2022-12-29T18:50:31;29.00;;;15.10;;
51529;SDS011;37613;51.788;21.582;2022-12-29T18:54:34;59.70;;;29.00;;
51529;SDS011;37613;51.788;21.582;2022-12-29T18:58:36;41.40;;;20.90;;
51529;SDS011;37613;51.788;21.582;2022-12-29T19:02:38;39.60;;;20.80;;
51529;SDS011;37613;51.788;21.582;2022-12-29T19:06:41;44.60;;;22.40;;
51529;SDS011;37613;51.788;21.582;2022-12-29T19:10:44;41.00;;;19.20;;
51529;SDS011;37613;51.788;21.582;2022-12-29T19:14:47;41.90;;;21.00;;
51529;SDS011;37613;51.788;21.582;2022-12-29T19:18:49;56.70;;;24.70;;
51529;SDS011;37613;51.788;21.582;2022-12-29T19:22:54;71.60;;;32.10;;
51529;SDS011;37613;51.788;21.582;2022-12-29T19:26:57;35.40;;;22.00;;
51529;SDS011;37613;51.788;21.582;2022-12-29T19:31:00;26.70;;;15.40;;
51529;SDS011;37613;51.788;21.582;2022-12-29T19:35:04;49.50;;;25.60;;
51529;SDS011;37613;51.788;21.582;2022-12-29T19:39:06;39.40;;;21.60;;
51529;SDS011;37613;51.788;21.582;2022-12-29T19:43:09;49.40;;;24.70;;
51529;SDS011;37613;51.788;21.582;2022-12-29T19:47:12;34.10;;;18.20;;
51529;SDS011;37613;51.788;21.582;2022-12-29T19:51:15;38.10;;;20.30;;
51529;SDS011;37613;51.788;21.582;2022-12-29T19:55:17;27.40;;;16.40;;
51529;SDS011;37613;51.788;21.582;2022-12-29T19:59:20;35.00;;;18.80;;
51529;SDS011;37613;51.788;21.582;2022-12-29T20:03:22;48.80;;;24.30;;
51529;SDS011;37613;51.788;21.582;2022-12-29T20:07:25;54.30;;;23.00;;
51529;SDS011;37613;51.788;21.582;2022-12-29T20:11:28;57.70;;;23.50;;
51529;SDS011;37613;51.788;21.582;2022-12-29T20:15:31;53.80;;;24.70;;
51529;SDS011;37613;51.788;21.582;2022-12-29T20:19:33;33.40;;;18.50;;
51529;SDS011;37613;51.788;21.582;2022-12-29T20:23:37;31.90;;;19.80;;
51529;SDS011;37613;51.788;21.582;2022-12-29T20:27:40;33.40;;;17.90;;
51529;SDS011;37613;51.788;21.582;2022-12-29T20:31:42;39.70;;;19.60;;
51529;SDS011;37613;51.788;21.582;2022-12-29T20:35:44;31.80;;;16.50;;
51529;SDS011;37613;51.788;21.582;2022-12-29T20:39:46;25.40;;;15.50;;
51529;SDS011;37613;51.788;21.582;2022-12-29T20:43:49;31.70;;;16.50;;
51529;SDS011;37613;51.788;21.582;2022-12-29T20:47:53;28.40;;;14.30;;
51529;SDS011;37613;51.788;21.582;2022-12-29T20:51:55;32.40;;;16.30;;
51529;SDS011;37613;51.788;21.582;2022-12-29T20:56:02;27.10;;;14.30;;
51529;SDS011;37613;51.788;21.582;2022-12-29T21:00:06;39.50;;;16.50;;
51529;SDS011;37613;51.788;21.582;2022-12-29T21:04:17;37.70;;;18.80;;
51529;SDS011;37613;51.788;21.582;2022-12-29T21:08:22;30.10;;;16.80;;
51529;SDS011;37613;51.788;21.582;2022-12-29T21:12:27;29.50;;;14.60;;
51529;SDS011;37613;51.788;21.582;2022-12-29T21:20:57;25.10;;;14.10;;
51529;SDS011;37613;51.788;21.582;2022-12-29T21:34:20;32.80;;;18.50;;
51529;SDS011;37613;51.788;21.582;2022-12-29T21:38:35;31.10;;;15.90;;
51529;SDS011;37613;51.788;21.582;2022-12-29T21:42:46;31.50;;;17.80;;
51529;SDS011;37613;51.788;21.582;2022-12-29T21:46:51;33.00;;;17.70;;
51529;SDS011;37613;51.788;21.582;2022-12-29T21:50:54;31.70;;;16.10;;
51529;SDS011;37613;51.788;21.582;2022-12-29T21:55:17;29.40;;;15.90;;
51529;SDS011;37613;51.788;21.582;2022-12-29T21:59:21;30.20;;;17.60;;
51529;SDS011;37613;51.788;21.582;2022-12-29T22:03:44;30.40;;;17.00;;
51529;SDS011;37613;51.788;21.582;2022-12-29T22:13:05;27.10;;;14.70;;
51529;SDS011;37613;51.788;21.582;2022-12-29T22:17:17;26.60;;;14.80;;
51529;SDS011;37613;51.788;21.582;2022-12-29T22:21:27;26.50;;;14.80;;
51529;SDS011;37613;51.788;21.582;2022-12-29T22:25:30;28.10;;;14.40;;
51529;SDS011;37613;51.788;21.582;2022-12-29T22:29:32;34.90;;;17.50;;
51529;SDS011;37613;51.788;21.582;2022-12-29T22:38:01;31.70;;;16.60;;
51529;SDS011;37613;51.788;21.582;2022-12-29T22:42:06;25.50;;;13.00;;
51529;SDS011;37613;51.788;21.582;2022-12-29T22:46:20;22.20;;;12.60;;
51529;SDS011;37613;51.788;21.582;2022-12-29T22:50:29;29.10;;;15.30;;
51529;SDS011;37613;51.788;21.582;2022-12-29T22:54:37;24.50;;;14.50;;
51529;SDS011;37613;51.788;21.582;2022-12-29T22:58:43;28.60;;;15.90;;
51529;SDS011;37613;51.788;21.582;2022-12-29T23:02:46;27.00;;;15.20;;
51529;SDS011;37613;51.788;21.582;2022-12-29T23:06:49;24.90;;;13.20;;
51529;SDS011;37613;51.788;21.582;2022-12-29T23:11:12;23.40;;;11.80;;
51529;SDS011;37613;51.788;21.582;2022-12-29T23:19:50;25.30;;;13.70;;
51529;SDS011;37613;51.788;21.582;2022-12-29T23:24:12;22.70;;;13.20;;
51529;SDS011;37613;51.788;21.582;2022-12-29T23:28:14;30.90;;;16.20;;
51529;SDS011;37613;51.788;21.582;2022-12-29T23:37:02;31.20;;;15.70;;
51529;SDS011;37613;51.788;21.582;2022-12-29T23:41:07;23.30;;;13.40;;
51529;SDS011;37613;51.788;21.582;2022-12-29T23:45:10;31.40;;;15.80;;
51529;SDS011;37613;51.788;21.582;2022-12-29T23:49:12;34.80;;;20.50;;
51529;SDS011;37613;51.788;21.582;2022-12-29T23:57:36;28.80;;;16.10;;
